Time;durP1;ratioP1;P1;durP2;ratioP2;P2;SDS_P1;SDS_P2;PMS_P1;PMS_P2;Temp;Humidity;BMP_temperature;BMP_pressure;BME280_temperature;BME280_humidity;BME280_pressure;Samples;Min_cycle;Max_cycle;Signal;HPM_P1;HPM_P2
2024/03/19 00:01:45;;;;;;;5.07;3.77;;;0.50;99.90;;;;;;5013847;28;20210;-56
2024/03/19 00:04:10;;;;;;;4.50;4.10;;;0.50;99.90;;;;;;5016446;28;20176;-55
2024/03/19 00:06:36;;;;;;;5.13;3.93;;;0.60;99.90;;;;;;5019060;28;20230;-52
2024/03/19 00:09:03;;;;;;;4.23;3.93;;;0.60;99.90;;;;;;5018667;28;20172;-53
2024/03/19 00:11:29;;;;;;;4.17;3.77;;;0.50;99.90;;;;;;5022379;28;20190;-52
2024/03/19 00:13:55;;;;;;;4.03;3.63;;;0.50;99.90;;;;;;5013736;28;20419;-54
2024/03/19 00:16:21;;;;;;;3.83;3.53;;;0.50;99.90;;;;;;5014646;28;20534;-50
2024/03/19 00:18:47;;;;;;;6.50;5.20;;;0.50;99.90;;;;;;5015500;28;20506;-54
2024/03/19 00:21:12;;;;;;;5.90;4.37;;;0.50;99.90;;;;;;5017186;28;20184;-56
2024/03/19 00:23:38;;;;;;;6.50;4.17;;;0.50;99.90;;;;;;5017302;28;20944;-56
2024/03/19 00:26:07;;;;;;;4.07;3.57;;;0.50;99.90;;;;;;5019099;28;20224;-55
2024/03/19 00:28:33;;;;;;;6.53;4.30;;;0.50;99.90;;;;;;5016585;28;20176;-56
2024/03/19 00:30:59;;;;;;;4.00;3.60;;;0.50;99.90;;;;;;5013762;28;20465;-54
2024/03/19 00:33:26;;;;;;;3.53;3.23;;;0.50;99.90;;;;;;5015564;28;20492;-51
2024/03/19 00:35:52;;;;;;;5.10;3.30;;;0.50;99.90;;;;;;5015712;28;20542;-53
2024/03/19 00:38:19;;;;;;;4.33;4.03;;;0.50;99.90;;;;;;5017869;28;21021;-56
2024/03/19 00:40:45;;;;;;;3.73;3.43;;;0.40;99.90;;;;;;5019329;28;20171;-52
2024/03/19 00:43:10;;;;;;;3.73;3.43;;;0.40;99.90;;;;;;5019285;28;20403;-56
2024/03/19 00:45:36;;;;;;;6.10;4.10;;;0.40;99.90;;;;;;5016367;28;20489;-53
2024/03/19 00:48:02;;;;;;;3.60;3.00;;;0.40;99.90;;;;;;5013625;28;20658;-55
2024/03/19 00:50:27;;;;;;;4.73;3.70;;;0.40;99.90;;;;;;5015805;28;20172;-51
2024/03/19 00:52:53;;;;;;;3.80;3.50;;;0.40;99.90;;;;;;5016023;28;20442;-54
2024/03/19 00:55:19;;;;;;;4.73;3.60;;;0.40;99.90;;;;;;5017885;28;20208;-53
2024/03/19 00:57:45;;;;;;;4.03;3.60;;;0.40;99.90;;;;;;5020144;28;20172;-53
2024/03/19 01:00:11;;;;;;;3.53;3.23;;;0.40;99.90;;;;;;5019501;28;20403;-55
2024/03/19 01:02:43;;;;;;;3.60;3.30;;;0.40;99.90;;;;;;5009007;28;20544;-52
2024/03/19 01:05:11;;;;;;;3.60;3.30;;;0.40;99.90;;;;;;5013506;28;20430;-52
2024/03/19 01:07:41;;;;;;;4.00;3.70;;;0.40;99.90;;;;;;5013637;28;20464;-52
2024/03/19 01:10:11;;;;;;;4.53;4.17;;;0.40;99.90;;;;;;5014205;28;20415;-51
2024/03/19 01:12:38;;;;;;;4.03;3.63;;;0.30;99.90;;;;;;5014998;28;20418;-55
2024/03/19 01:15:05;;;;;;;3.47;3.27;;;0.30;99.90;;;;;;5018259;28;20925;-53
2024/03/19 01:17:32;;;;;;;4.37;3.97;;;0.30;99.90;;;;;;5015528;28;20473;-54
2024/03/19 01:19:57;;;;;;;4.43;3.57;;;0.30;99.90;;;;;;5011886;28;20423;-58
2024/03/19 01:22:23;;;;;;;4.03;3.63;;;0.30;99.90;;;;;;5014739;28;20411;-54
2024/03/19 01:24:49;;;;;;;3.73;3.37;;;0.30;99.90;;;;;;5011426;28;20208;-52
2024/03/19 01:27:14;;;;;;;4.60;3.87;;;0.30;99.90;;;;;;5016719;28;20729;-56
2024/03/19 01:29:40;;;;;;;3.33;2.80;;;0.30;99.90;;;;;;5016545;28;20222;-57
2024/03/19 01:32:06;;;;;;;5.63;3.30;;;0.30;99.90;;;;;;5019171;28;20646;-53
2024/03/19 01:34:31;;;;;;;4.10;3.70;;;0.30;99.90;;;;;;5011711;28;20760;-53
2024/03/19 01:36:57;;;;;;;4.73;4.10;;;0.20;99.90;;;;;;5012955;28;20439;-52
2024/03/19 01:39:23;;;;;;;4.47;4.07;;;0.20;99.90;;;;;;5015431;28;20255;-52
2024/03/19 01:41:54;;;;;;;4.20;3.40;;;0.30;99.90;;;;;;5016347;28;20535;-51
2024/03/19 01:44:21;;;;;;;4.23;3.70;;;0.30;99.90;;;;;;5017339;28;20164;-51
2024/03/19 01:46:47;;;;;;;7.30;3.10;;;0.20;99.90;;;;;;5020186;28;20430;-52
2024/03/19 01:49:14;;;;;;;4.60;3.40;;;0.30;99.90;;;;;;5014458;28;20417;-51
2024/03/19 01:51:41;;;;;;;4.60;3.27;;;0.20;99.90;;;;;;5016056;28;20489;-50
2024/03/19 01:54:07;;;;;;;4.17;3.40;;;0.30;99.90;;;;;;5017474;28;20454;-51
2024/03/19 01:56:34;;;;;;;4.57;3.60;;;0.20;99.90;;;;;;5020554;28;21989;-51
2024/03/19 01:59:00;;;;;;;4.10;3.10;;;0.20;99.90;;;;;;5017829;28;20176;-56
2024/03/19 02:01:25;;;;;;;3.77;3.47;;;0.20;99.90;;;;;;5024252;28;20430;-55
2024/03/19 02:03:52;;;;;;;4.90;3.73;;;0.20;99.90;;;;;;5027652;28;20206;-60
2024/03/19 02:06:18;;;;;;;3.73;3.37;;;0.20;99.90;;;;;;5015535;28;20283;-54
2024/03/19 02:09:03;;;;;;;10.43;5.50;;;0.20;99.90;;;;;;5014834;28;20443;-54
2024/03/19 02:11:32;;;;;;;4.67;3.80;;;0.20;99.90;;;;;;5014554;28;20473;-54
2024/03/19 02:13:59;;;;;;;3.90;3.60;;;0.20;99.90;;;;;;5011289;28;20427;-50
2024/03/19 02:16:25;;;;;;;4.70;2.90;;;0.20;99.90;;;;;;5013738;28;20477;-58
2024/03/19 02:18:59;;;;;;;2.83;2.60;;;0.20;99.90;;;;;;5014928;28;20415;-53
2024/03/19 02:21:28;;;;;;;3.33;3.03;;;0.20;99.90;;;;;;5015123;28;21235;-52
2024/03/19 02:23:58;;;;;;;5.37;3.57;;;0.20;99.90;;;;;;5014878;28;20411;-55
2024/03/19 02:26:26;;;;;;;4.93;4.37;;;0.20;99.90;;;;;;5014665;28;20446;-55
2024/03/19 02:28:52;;;;;;;4.00;3.70;;;0.10;99.90;;;;;;5014837;28;20415;-55
2024/03/19 02:31:18;;;;;;;3.00;2.80;;;0.20;99.90;;;;;;5014841;28;20426;-55
2024/03/19 02:33:44;;;;;;;4.53;4.00;;;0.10;99.90;;;;;;5012774;28;20785;-52
2024/03/19 02:36:11;;;;;;;4.87;3.63;;;0.10;99.90;;;;;;5014587;28;20964;-51
2024/03/19 02:38:36;;;;;;;4.83;3.43;;;0.10;99.90;;;;;;5014763;28;20864;-53
2024/03/19 02:41:03;;;;;;;3.97;3.67;;;0.10;99.90;;;;;;5014789;28;20518;-55
2024/03/19 02:43:29;;;;;;;4.87;3.90;;;0.10;99.90;;;;;;5014274;28;20187;-51
2024/03/19 02:45:54;;;;;;;5.37;4.07;;;0.10;99.90;;;;;;5014749;28;20446;-50
2024/03/19 02:48:21;;;;;;;5.13;4.57;;;0.10;99.90;;;;;;5015019;28;20431;-54
2024/03/19 02:50:46;;;;;;;4.40;4.00;;;0.10;99.90;;;;;;5014267;28;20194;-53
2024/03/19 02:53:12;;;;;;;3.93;3.53;;;0.10;99.90;;;;;;5014357;28;20450;-53
2024/03/19 02:55:37;;;;;;;3.93;3.50;;;0.10;99.90;;;;;;5013836;28;20196;-54
2024/03/19 02:58:03;;;;;;;4.57;4.20;;;0.10;99.90;;;;;;5014258;28;20184;-52
2024/03/19 03:00:29;;;;;;;6.87;3.90;;;0.00;99.90;;;;;;5013944;28;20560;-56
2024/03/19 03:02:54;;;;;;;7.47;3.70;;;0.00;99.90;;;;;;5013075;28;20648;-51
2024/03/19 03:05:20;;;;;;;4.23;3.50;;;-0.10;99.90;;;;;;5014187;28;20192;-53
2024/03/19 03:07:46;;;;;;;3.60;3.30;;;0.00;99.90;;;;;;5014493;28;20191;-57
2024/03/19 03:10:12;;;;;;;6.90;4.50;;;-0.10;99.90;;;;;;5014278;28;20419;-59
2024/03/19 03:12:37;;;;;;;4.90;4.30;;;-0.10;99.90;;;;;;5014202;28;20184;-53
2024/03/19 03:15:04;;;;;;;5.73;4.70;;;0.00;99.90;;;;;;5014068;28;20250;-54
2024/03/19 03:17:33;;;;;;;4.23;3.83;;;-0.10;99.90;;;;;;5016562;28;20210;-58
2024/03/19 03:19:59;;;;;;;7.13;4.73;;;-0.10;99.90;;;;;;5016031;28;20427;-54
2024/03/19 03:22:25;;;;;;;4.87;4.47;;;-0.10;99.90;;;;;;5013340;28;20769;-52
2024/03/19 03:24:50;;;;;;;7.10;4.90;;;-0.10;99.90;;;;;;5013781;28;20430;-56
2024/03/19 03:27:17;;;;;;;5.57;5.03;;;-0.10;99.90;;;;;;5013935;28;20187;-57
2024/03/19 03:29:43;;;;;;;5.40;4.60;;;-0.10;99.90;;;;;;5013503;28;20216;-52
2024/03/19 03:32:09;;;;;;;6.00;4.57;;;-0.10;99.90;;;;;;5013717;28;20463;-57
2024/03/19 03:34:35;;;;;;;5.13;4.47;;;-0.10;99.90;;;;;;5013244;28;20203;-51
2024/03/19 03:37:02;;;;;;;6.47;4.50;;;0.00;99.90;;;;;;5013773;28;20530;-54
2024/03/19 03:39:27;;;;;;;7.50;4.73;;;-0.10;99.90;;;;;;5013716;28;20838;-53
2024/03/19 03:41:53;;;;;;;5.23;4.53;;;-0.10;99.90;;;;;;5013649;28;20411;-52
2024/03/19 03:44:19;;;;;;;5.33;4.83;;;-0.10;99.90;;;;;;5013490;28;20180;-56
2024/03/19 03:46:44;;;;;;;7.13;4.50;;;-0.10;99.90;;;;;;5013561;28;20279;-56
2024/03/19 03:49:10;;;;;;;8.13;5.53;;;-0.10;99.90;;;;;;5012157;28;20996;-57
2024/03/19 03:51:36;;;;;;;7.70;4.97;;;-0.10;99.90;;;;;;5013212;28;20191;-51
2024/03/19 03:54:02;;;;;;;6.30;5.70;;;-0.10;99.90;;;;;;5013159;28;20666;-52
2024/03/19 03:56:28;;;;;;;6.40;5.00;;;-0.10;99.90;;;;;;5013194;28;20431;-56
2024/03/19 03:58:54;;;;;;;5.30;4.80;;;-0.10;99.90;;;;;;5013408;28;20187;-52
2024/03/19 04:01:20;;;;;;;7.20;5.43;;;-0.10;99.90;;;;;;5013426;28;20804;-50
2024/03/19 04:03:46;;;;;;;5.00;4.50;;;-0.10;99.90;;;;;;5004928;28;20175;-55
2024/03/19 04:06:11;;;;;;;6.47;5.87;;;-0.10;99.90;;;;;;5012974;28;20553;-51
2024/03/19 04:08:37;;;;;;;7.93;5.10;;;-0.20;99.90;;;;;;5012772;28;20502;-57
2024/03/19 04:11:03;;;;;;;13.07;5.50;;;-0.20;99.90;;;;;;5012939;28;20192;-50
2024/03/19 04:13:28;;;;;;;5.27;4.73;;;-0.20;99.90;;;;;;5012461;28;20255;-53
2024/03/19 04:15:56;;;;;;;7.73;5.83;;;-0.20;99.90;;;;;;5012775;28;20302;-55
2024/03/19 04:18:22;;;;;;;12.23;6.00;;;-0.20;99.90;;;;;;5012725;28;20180;-52
2024/03/19 04:20:50;;;;;;;8.67;5.97;;;-0.20;99.90;;;;;;5012820;28;20419;-52
2024/03/19 04:23:16;;;;;;;7.80;5.20;;;-0.20;99.90;;;;;;5012689;28;20638;-56
2024/03/19 04:25:42;;;;;;;7.03;5.90;;;-0.20;99.90;;;;;;5012555;28;20454;-55
2024/03/19 04:28:07;;;;;;;6.77;5.57;;;-0.20;99.90;;;;;;5012591;28;20729;-57
2024/03/19 04:30:33;;;;;;;6.37;5.57;;;-0.20;99.90;;;;;;5012276;28;20259;-53
2024/03/19 04:32:58;;;;;;;9.60;5.70;;;-0.20;99.90;;;;;;5012119;28;20188;-52
2024/03/19 04:35:24;;;;;;;7.50;5.63;;;-0.20;99.90;;;;;;5011085;28;20214;-55
2024/03/19 04:37:50;;;;;;;6.33;5.73;;;-0.30;99.90;;;;;;5012705;28;20195;-55
2024/03/19 04:40:16;;;;;;;10.77;6.57;;;-0.20;99.90;;;;;;5012231;28;20180;-54
2024/03/19 04:42:42;;;;;;;12.47;5.40;;;-0.20;99.90;;;;;;5012211;28;20212;-56
2024/03/19 04:45:09;;;;;;;9.60;5.37;;;-0.20;99.90;;;;;;5012163;28;20459;-58
2024/03/19 04:47:35;;;;;;;5.47;4.90;;;-0.30;99.90;;;;;;5012064;28;20182;-55
2024/03/19 04:50:01;;;;;;;8.10;5.10;;;-0.20;99.90;;;;;;5012291;28;20415;-52
2024/03/19 04:52:26;;;;;;;6.57;5.97;;;-0.30;99.90;;;;;;5012159;28;20212;-54
2024/03/19 04:54:52;;;;;;;6.70;6.00;;;-0.20;99.90;;;;;;5011801;28;20607;-56
2024/03/19 04:57:18;;;;;;;5.90;5.30;;;-0.30;99.90;;;;;;5012306;28;20549;-57
2024/03/19 04:59:44;;;;;;;6.00;5.03;;;-0.30;99.90;;;;;;5011931;28;20275;-56
2024/03/19 05:02:10;;;;;;;8.20;6.23;;;-0.30;99.90;;;;;;5012002;28;20498;-50
2024/03/19 05:04:36;;;;;;;6.47;5.87;;;-0.30;99.90;;;;;;5012016;28;20174;-52
2024/03/19 05:07:02;;;;;;;7.33;6.60;;;-0.30;99.90;;;;;;5012352;28;20523;-54
2024/03/19 05:09:28;;;;;;;8.93;5.83;;;-0.30;99.90;;;;;;5011652;28;20839;-55
2024/03/19 05:11:54;;;;;;;5.20;4.77;;;-0.30;99.90;;;;;;5012131;28;20451;-55
2024/03/19 05:14:20;;;;;;;9.33;6.17;;;-0.30;99.90;;;;;;5012037;28;20513;-55
2024/03/19 05:16:46;;;;;;;7.30;6.53;;;-0.30;99.90;;;;;;5011457;28;20295;-51
2024/03/19 05:19:11;;;;;;;8.03;6.03;;;-0.30;99.90;;;;;;5011939;28;20599;-55
2024/03/19 05:21:37;;;;;;;10.93;5.13;;;-0.30;99.90;;;;;;5011902;28;20454;-54
2024/03/19 05:24:03;;;;;;;7.70;4.63;;;-0.20;99.90;;;;;;5011141;28;20934;-53
2024/03/19 05:26:28;;;;;;;5.97;5.40;;;-0.20;99.90;;;;;;5011279;28;20188;-55
2024/03/19 05:28:54;;;;;;;6.60;4.37;;;-0.20;99.90;;;;;;5011397;28;20212;-50
2024/03/19 05:31:27;;;;;;;7.70;5.90;;;-0.20;99.90;;;;;;5011458;28;20180;-54
2024/03/19 05:33:54;;;;;;;6.37;4.90;;;-0.20;99.90;;;;;;5011790;28;20176;-51
2024/03/19 05:36:20;;;;;;;8.57;6.27;;;-0.20;99.90;;;;;;5011497;28;20443;-54
2024/03/19 05:38:47;;;;;;;5.87;5.27;;;-0.10;99.90;;;;;;5011154;28;20497;-54
2024/03/19 05:41:15;;;;;;;5.83;5.30;;;-0.10;99.90;;;;;;5011464;28;20415;-51
2024/03/19 05:43:48;;;;;;;7.07;5.47;;;-0.10;99.90;;;;;;5011373;28;20411;-51
2024/03/19 05:46:14;;;;;;;8.10;5.50;;;-0.10;99.90;;;;;;5011282;28;20446;-49
2024/03/19 05:48:40;;;;;;;7.33;5.67;;;0.00;99.90;;;;;;5011061;28;20411;-54
2024/03/19 05:51:10;;;;;;;7.73;5.13;;;0.00;99.90;;;;;;5011520;28;20472;-51
2024/03/19 05:53:37;;;;;;;7.23;5.20;;;0.00;99.90;;;;;;5010968;28;20176;-51
2024/03/19 05:56:04;;;;;;;7.93;6.40;;;0.10;99.90;;;;;;5011381;28;20463;-52
2024/03/19 05:58:30;;;;;;;11.10;6.53;;;0.10;99.90;;;;;;5011291;28;20404;-52
2024/03/19 06:00:56;;;;;;;8.33;7.20;;;0.20;99.90;;;;;;5010982;28;20415;-52
2024/03/19 06:03:22;;;;;;;7.80;6.47;;;0.30;99.90;;;;;;5007242;28;20412;-54
2024/03/19 06:05:55;;;;;;;9.90;7.17;;;0.40;99.90;;;;;;5011341;28;20200;-56
2024/03/19 06:08:21;;;;;;;9.40;7.33;;;0.50;99.90;;;;;;5011466;28;20410;-53
2024/03/19 06:10:47;;;;;;;8.93;7.67;;;0.80;99.90;;;;;;5012837;28;20431;-59
2024/03/19 06:13:12;;;;;;;8.20;6.33;;;1.10;99.90;;;;;;5010889;28;20520;-54
2024/03/19 06:15:38;;;;;;;9.30;7.23;;;1.60;99.90;;;;;;5011123;28;20258;-51
2024/03/19 06:18:04;;;;;;;9.47;6.50;;;2.00;99.90;;;;;;5013408;28;20177;-59
2024/03/19 06:20:30;;;;;;;7.63;6.27;;;2.40;99.90;;;;;;5014256;28;20180;-59
2024/03/19 06:22:57;;;;;;;8.67;6.43;;;2.80;99.90;;;;;;5014389;28;20839;-54
2024/03/19 06:25:23;;;;;;;9.93;6.80;;;3.00;99.90;;;;;;5011126;28;20534;-55
2024/03/19 06:27:49;;;;;;;8.67;7.00;;;3.00;99.90;;;;;;5011249;28;20419;-53
2024/03/19 06:30:15;;;;;;;8.33;5.83;;;3.20;99.90;;;;;;5011327;28;20419;-54
2024/03/19 06:32:41;;;;;;;8.37;6.97;;;3.60;99.90;;;;;;5011038;28;20445;-55
2024/03/19 06:35:07;;;;;;;7.10;6.40;;;3.80;99.90;;;;;;5011058;28;20212;-50
2024/03/19 06:37:33;;;;;;;10.30;7.10;;;4.40;99.90;;;;;;5014122;28;20799;-56
2024/03/19 06:39:59;;;;;;;8.87;6.87;;;4.70;99.90;;;;;;5014503;28;20407;-56
2024/03/19 06:42:24;;;;;;;6.07;5.47;;;4.20;99.90;;;;;;5014736;28;20180;-53
2024/03/19 06:44:52;;;;;;;9.50;6.47;;;4.00;99.90;;;;;;5014364;28;20172;-59
2024/03/19 06:47:18;;;;;;;9.33;7.33;;;4.40;99.90;;;;;;5014807;28;20180;-59
2024/03/19 06:49:44;;;;;;;7.90;6.50;;;4.50;99.90;;;;;;5014461;28;20441;-54
2024/03/19 06:52:09;;;;;;;8.10;6.73;;;5.00;99.90;;;;;;5014434;28;20639;-56
2024/03/19 06:54:35;;;;;;;7.53;6.73;;;5.60;99.90;;;;;;5013973;28;20282;-55
2024/03/19 06:57:00;;;;;;;10.03;7.07;;;5.50;99.90;;;;;;5014509;28;20191;-56
2024/03/19 06:59:27;;;;;;;8.63;7.17;;;5.50;99.90;;;;;;5014581;28;20253;-53
2024/03/19 07:01:53;;;;;;;7.43;5.53;;;5.40;99.90;;;;;;5014501;28;20206;-57
2024/03/19 07:04:19;;;;;;;9.30;7.43;;;5.30;99.90;;;;;;5014344;28;20430;-55
2024/03/19 07:06:44;;;;;;;9.83;6.03;;;5.80;99.90;;;;;;5014056;28;20431;-55
2024/03/19 07:09:10;;;;;;;8.27;6.17;;;6.10;99.90;;;;;;5014240;28;20173;-54
2024/03/19 07:11:36;;;;;;;7.43;6.63;;;6.10;99.90;;;;;;5013845;28;20195;-54
2024/03/19 07:14:04;;;;;;;9.57;5.87;;;6.10;99.90;;;;;;5014002;28;20556;-52
2024/03/19 07:16:31;;;;;;;7.70;6.63;;;6.30;99.50;;;;;;5013562;28;20497;-52
2024/03/19 07:18:57;;;;;;;8.17;6.97;;;6.20;98.50;;;;;;5013948;28;20412;-55
2024/03/19 07:21:23;;;;;;;7.93;7.13;;;6.60;99.10;;;;;;5013814;28;20434;-56
2024/03/19 07:23:48;;;;;;;7.03;6.33;;;6.70;98.10;;;;;;5013548;28;20458;-57
2024/03/19 07:26:14;;;;;;;9.30;6.73;;;6.80;98.10;;;;;;5013788;28;20547;-52
2024/03/19 07:28:40;;;;;;;8.20;6.40;;;7.20;97.60;;;;;;5013321;28;20184;-57
2024/03/19 07:31:06;;;;;;;11.17;7.53;;;7.30;96.40;;;;;;5013302;28;20180;-55
2024/03/19 07:33:32;;;;;;;9.57;6.77;;;7.50;94.90;;;;;;5013606;28;20169;-58
2024/03/19 07:35:58;;;;;;;9.83;7.60;;;7.10;95.80;;;;;;5013032;28;20459;-55
2024/03/19 07:38:24;;;;;;;12.60;7.73;;;7.20;93.90;;;;;;5013326;28;20415;-54
2024/03/19 07:40:49;;;;;;;12.40;8.30;;;6.90;96.10;;;;;;5013189;28;20258;-56
2024/03/19 07:43:18;;;;;;;9.43;7.13;;;7.50;95.10;;;;;;5012981;28;20235;-57
2024/03/19 07:45:44;;;;;;;10.63;6.60;;;7.40;94.40;;;;;;5012851;28;20204;-53
2024/03/19 07:48:12;;;;;;;8.33;6.83;;;6.90;95.90;;;;;;5012377;28;20420;-57
2024/03/19 07:50:41;;;;;;;8.70;7.60;;;7.30;95.30;;;;;;5012856;28;20415;-56
2024/03/19 07:53:07;;;;;;;9.33;6.73;;;7.20;95.40;;;;;;5013303;28;20839;-51
2024/03/19 07:55:33;;;;;;;8.50;7.53;;;6.70;97.00;;;;;;5012935;28;20558;-51
2024/03/19 07:58:00;;;;;;;8.57;7.43;;;6.90;96.30;;;;;;5013137;28;20940;-59
2024/03/19 08:00:25;;;;;;;10.80;8.10;;;7.10;97.10;;;;;;5013646;28;20191;-55
2024/03/19 08:02:51;;;;;;;9.70;7.93;;;8.00;95.70;;;;;;5013062;28;20800;-57
2024/03/19 08:05:16;;;;;;;9.87;7.97;;;7.90;93.60;;;;;;5012873;28;20242;-55
2024/03/19 08:07:45;;;;;;;9.67;7.60;;;8.10;94.00;;;;;;5011991;28;20172;-56
2024/03/19 08:10:12;;;;;;;9.33;8.37;;;8.50;92.90;;;;;;5012863;28;20172;-55
2024/03/19 08:12:38;;;;;;;13.90;9.70;;;8.30;91.60;;;;;;5012881;28;20426;-55
2024/03/19 08:15:04;;;;;;;9.37;7.33;;;8.50;94.10;;;;;;5012519;28;20819;-55
2024/03/19 08:17:30;;;;;;;8.10;7.30;;;9.00;92.20;;;;;;5012732;28;20184;-57
2024/03/19 08:19:58;;;;;;;9.07;8.00;;;8.90;90.50;;;;;;5012500;28;20780;-57
2024/03/19 08:22:23;;;;;;;11.10;8.10;;;8.30;91.60;;;;;;5013100;28;20977;-54
2024/03/19 08:24:49;;;;;;;10.37;7.30;;;8.70;92.90;;;;;;5011801;28;20466;-52
2024/03/19 08:27:15;;;;;;;9.40;8.00;;;8.60;90.70;;;;;;5012239;28;20227;-53
2024/03/19 08:29:42;;;;;;;11.90;8.90;;;7.80;93.10;;;;;;5012069;28;20603;-57
2024/03/19 08:32:08;;;;;;;9.73;8.00;;;8.30;91.90;;;;;;5012713;28;20416;-54
2024/03/19 08:34:33;;;;;;;8.50;7.23;;;8.90;91.70;;;;;;5012233;28;20447;-56
2024/03/19 08:36:59;;;;;;;8.90;8.00;;;9.40;87.60;;;;;;5012373;28;20463;-55
2024/03/19 08:39:26;;;;;;;12.50;8.30;;;8.40;90.50;;;;;;5012416;28;20170;-55
2024/03/19 08:41:53;;;;;;;9.50;7.33;;;8.70;91.10;;;;;;5012382;28;20418;-52
2024/03/19 08:44:19;;;;;;;10.23;8.73;;;9.20;90.70;;;;;;5012447;28;20435;-53
2024/03/19 08:46:45;;;;;;;8.33;7.53;;;10.50;88.30;;;;;;5012097;28;20437;-52
2024/03/19 08:49:11;;;;;;;9.60;7.53;;;10.10;82.10;;;;;;5012331;28;20468;-55
2024/03/19 08:51:36;;;;;;;9.43;7.70;;;10.80;79.50;;;;;;5012406;28;20181;-57
2024/03/19 08:54:02;;;;;;;9.10;7.50;;;11.90;77.40;;;;;;5012142;28;20235;-55
2024/03/19 08:56:28;;;;;;;9.70;8.63;;;10.80;78.20;;;;;;5011829;28;20203;-54
2024/03/19 08:58:53;;;;;;;14.73;7.37;;;10.10;76.70;;;;;;5010040;28;20169;-55
2024/03/19 09:01:20;;;;;;;10.27;8.70;;;10.20;73.80;;;;;;5011155;28;20185;-54
2024/03/19 09:03:45;;;;;;;7.73;6.93;;;9.50;77.80;;;;;;5011755;28;20639;-53
2024/03/19 09:06:11;;;;;;;8.60;6.50;;;9.50;78.40;;;;;;5011270;28;20478;-55
2024/03/19 09:08:36;;;;;;;9.10;7.10;;;10.40;74.50;;;;;;5011664;28;20276;-56
2024/03/19 09:11:02;;;;;;;8.70;6.57;;;10.90;71.80;;;;;;5011552;28;20267;-60
2024/03/19 09:13:28;;;;;;;6.60;5.73;;;10.10;71.90;;;;;;5007451;28;20193;-57
2024/03/19 09:15:53;;;;;;;7.93;6.10;;;10.90;70.60;;;;;;5002710;28;20561;-58
2024/03/19 09:18:19;;;;;;;6.30;5.70;;;10.60;67.30;;;;;;5007460;28;20262;-61
2024/03/19 09:20:47;;;;;;;7.93;5.87;;;10.70;70.20;;;;;;4999585;28;20187;-56
2024/03/19 09:23:13;;;;;;;6.53;5.83;;;10.60;66.60;;;;;;5009273;28;20172;-58
2024/03/19 09:25:38;;;;;;;7.27;6.57;;;10.60;70.90;;;;;;5011265;28;20966;-58
2024/03/19 09:28:04;;;;;;;8.17;6.83;;;11.00;69.50;;;;;;5006783;28;20332;-57
2024/03/19 09:30:30;;;;;;;10.00;6.40;;;11.30;66.70;;;;;;5011262;28;20177;-56
2024/03/19 09:32:56;;;;;;;8.13;6.60;;;11.20;67.00;;;;;;5011420;28;20417;-56
2024/03/19 09:35:22;;;;;;;6.13;5.53;;;10.90;64.50;;;;;;5011544;28;20826;-57
2024/03/19 09:37:47;;;;;;;7.90;7.10;;;9.80;69.80;;;;;;5011548;28;20726;-57
2024/03/19 09:40:15;;;;;;;6.87;6.27;;;10.50;70.40;;;;;;5007085;28;20179;-54
2024/03/19 09:42:41;;;;;;;7.90;7.10;;;9.80;71.50;;;;;;5011607;28;20250;-52
2024/03/19 09:45:14;;;;;;;7.77;6.97;;;9.30;71.70;;;;;;5011067;28;20417;-55
2024/03/19 09:47:40;;;;;;;8.77;6.27;;;9.70;70.40;;;;;;5007953;28;20408;-59
2024/03/19 09:50:15;;;;;;;8.33;6.40;;;10.10;70.30;;;;;;5010056;28;20416;-57
2024/03/19 09:52:41;;;;;;;6.83;5.80;;;9.90;70.40;;;;;;5010346;28;20200;-57
2024/03/19 09:55:14;;;;;;;7.90;7.00;;;9.30;69.00;;;;;;5010981;28;20513;-56
2024/03/19 09:57:43;;;;;;;7.43;6.83;;;8.70;70.40;;;;;;5011250;28;20415;-60
2024/03/19 10:00:26;;;;;;;7.53;6.67;;;8.90;71.80;;;;;;5007199;28;20395;-54
2024/03/19 10:02:53;;;;;;;7.37;6.47;;;9.00;70.60;;;;;;5011361;28;20830;-60
2024/03/19 10:05:18;;;;;;;6.90;6.03;;;8.30;72.30;;;;;;5010858;28;20435;-61
2024/03/19 10:07:45;;;;;;;6.43;5.83;;;8.20;72.90;;;;;;5008249;28;20418;-59
2024/03/19 10:10:15;;;;;;;7.93;7.13;;;7.80;72.80;;;;;;5011175;28;20183;-57
2024/03/19 10:12:41;;;;;;;7.53;6.63;;;7.50;74.10;;;;;;5012527;28;20471;-58
2024/03/19 10:15:08;;;;;;;8.03;6.53;;;7.50;76.70;;;;;;5008067;28;20530;-59
2024/03/19 10:17:35;;;;;;;8.40;6.73;;;7.50;78.00;;;;;;5011572;28;20447;-55
2024/03/19 10:20:00;;;;;;;8.43;7.00;;;7.70;79.80;;;;;;5011841;28;20412;-59
2024/03/19 10:22:27;;;;;;;9.70;7.63;;;7.80;77.50;;;;;;5014831;28;20929;-54
2024/03/19 10:24:55;;;;;;;11.00;7.53;;;7.40;77.10;;;;;;5012397;28;20176;-54
2024/03/19 10:27:21;;;;;;;7.20;6.50;;;7.20;78.00;;;;;;5014739;28;21055;-53
2024/03/19 10:29:47;;;;;;;9.63;6.63;;;7.20;79.10;;;;;;5010545;28;20416;-56
2024/03/19 10:32:13;;;;;;;7.83;6.43;;;7.20;79.30;;;;;;5011786;28;20652;-55
2024/03/19 10:34:40;;;;;;;7.27;6.20;;;7.50;79.50;;;;;;5012984;28;20205;-56
2024/03/19 10:37:06;;;;;;;9.10;6.00;;;7.60;79.90;;;;;;5014599;28;20937;-54
2024/03/19 10:39:32;;;;;;;8.27;6.67;;;7.50;78.70;;;;;;5011326;28;20418;-53
2024/03/19 10:42:03;;;;;;;8.13;6.43;;;7.50;79.10;;;;;;5009045;28;20173;-53
2024/03/19 10:44:33;;;;;;;7.87;6.20;;;7.40;78.40;;;;;;5015033;28;20173;-57
2024/03/19 10:46:58;;;;;;;8.20;6.47;;;7.30;80.60;;;;;;5012806;28;20451;-55
2024/03/19 10:49:26;;;;;;;6.77;5.93;;;7.70;78.90;;;;;;5014542;28;20420;-52
2024/03/19 10:51:59;;;;;;;5.87;5.13;;;7.70;77.20;;;;;;5014212;28;20170;-55
2024/03/19 10:54:27;;;;;;;8.50;7.07;;;7.70;76.80;;;;;;5013888;28;20438;-51
2024/03/19 10:56:53;;;;;;;10.20;6.10;;;7.80;76.90;;;;;;5011648;28;20454;-51
2024/03/19 10:59:18;;;;;;;6.80;5.47;;;7.70;76.10;;;;;;5013469;28;20442;-53
2024/03/19 11:01:50;;;;;;;6.43;4.93;;;7.30;75.20;;;;;;5009146;28;20404;-58
2024/03/19 11:04:16;;;;;;;7.23;5.80;;;7.50;75.90;;;;;;5013956;28;20571;-51
2024/03/19 11:06:53;;;;;;;7.97;6.97;;;7.30;75.30;;;;;;5013738;28;20428;-55
2024/03/19 11:09:21;;;;;;;5.87;5.30;;;7.20;76.90;;;;;;5009452;28;20430;-56
2024/03/19 11:11:55;;;;;;;7.27;5.30;;;7.40;78.20;;;;;;5009265;28;20514;-58
2024/03/19 11:14:23;;;;;;;6.10;5.50;;;7.70;77.30;;;;;;5012342;28;20443;-54
2024/03/19 11:16:49;;;;;;;7.40;5.83;;;7.70;76.70;;;;;;5008847;28;20482;-52
2024/03/19 11:19:20;;;;;;;7.43;6.17;;;7.90;77.60;;;;;;5011787;28;20409;-53
2024/03/19 11:21:52;;;;;;;5.93;4.60;;;7.90;75.40;;;;;;5012718;28;20408;-58
2024/03/19 11:24:22;;;;;;;5.80;5.30;;;7.90;76.70;;;;;;5007392;28;20844;-55
2024/03/19 11:26:51;;;;;;;6.57;5.53;;;8.20;76.20;;;;;;5005740;28;20527;-58
2024/03/19 11:29:17;;;;;;;9.90;5.33;;;8.00;74.40;;;;;;5013337;28;20501;-55
2024/03/19 11:31:45;;;;;;;5.40;4.90;;;8.10;72.40;;;;;;5012605;28;20559;-54
2024/03/19 11:34:15;;;;;;;5.90;5.30;;;7.90;71.90;;;;;;5006898;28;20189;-53
2024/03/19 11:36:50;;;;;;;5.73;4.80;;;7.90;73.20;;;;;;5013471;28;20561;-61
2024/03/19 11:39:16;;;;;;;6.40;5.13;;;8.20;73.30;;;;;;5011948;28;20775;-56
2024/03/19 11:41:42;;;;;;;6.13;5.20;;;8.00;70.80;;;;;;5013316;28;20502;-51
2024/03/19 11:44:22;;;;;;;13.20;5.53;;;8.10;73.30;;;;;;5013202;28;20166;-61
2024/03/19 11:46:52;;;;;;;11.10;5.60;;;8.10;71.60;;;;;;5013752;28;20431;-55
2024/03/19 11:49:28;;;;;;;6.30;5.70;;;8.30;70.20;;;;;;5013798;28;20427;-56
2024/03/19 11:51:58;;;;;;;5.30;4.80;;;8.20;70.10;;;;;;5011183;28;20416;-52
2024/03/19 11:54:29;;;;;;;4.90;4.40;;;8.00;69.20;;;;;;5013718;28;20447;-56
2024/03/19 11:56:55;;;;;;;5.17;4.57;;;8.20;68.90;;;;;;5013702;28;20442;-53
2024/03/19 11:59:23;;;;;;;10.70;5.00;;;8.30;68.30;;;;;;5013841;28;20420;-58
2024/03/19 12:01:51;;;;;;;5.97;4.73;;;8.30;68.00;;;;;;5008405;28;20440;-52
2024/03/19 12:04:18;;;;;;;6.33;5.07;;;8.30;68.60;;;;;;5012769;28;20420;-57
2024/03/19 12:06:46;;;;;;;5.60;5.10;;;8.20;69.00;;;;;;5012778;28;20519;-54
2024/03/19 12:09:11;;;;;;;7.10;4.90;;;8.40;69.50;;;;;;5010140;28;20781;-58
2024/03/19 12:11:37;;;;;;;4.67;4.27;;;8.60;68.60;;;;;;5012603;28;20424;-54
2024/03/19 12:14:03;;;;;;;6.10;5.50;;;8.50;67.60;;;;;;5010236;28;20184;-56
2024/03/19 12:16:29;;;;;;;6.60;4.90;;;8.50;69.20;;;;;;5011058;28;20222;-58
2024/03/19 12:18:55;;;;;;;6.10;5.50;;;8.80;68.80;;;;;;5012065;28;20212;-57
2024/03/19 12:21:20;;;;;;;6.33;5.33;;;8.90;68.70;;;;;;5012121;28;20564;-62
2024/03/19 12:23:46;;;;;;;5.97;5.27;;;9.00;68.50;;;;;;5010678;28;20191;-54
2024/03/19 12:26:12;;;;;;;7.50;4.43;;;8.80;66.30;;;;;;5011845;28;20667;-53
2024/03/19 12:28:39;;;;;;;7.13;5.70;;;8.80;67.80;;;;;;5012562;28;20183;-58
2024/03/19 12:31:05;;;;;;;5.20;4.73;;;8.90;68.20;;;;;;5012418;28;20209;-59
2024/03/19 12:33:40;;;;;;;7.23;5.37;;;8.80;67.10;;;;;;5011765;28;20813;-59
2024/03/19 12:36:07;;;;;;;5.73;4.80;;;8.90;67.60;;;;;;5012067;28;20515;-57
2024/03/19 12:38:33;;;;;;;6.17;5.30;;;8.90;66.70;;;;;;5012273;28;20424;-56
2024/03/19 12:40:59;;;;;;;9.57;5.10;;;9.20;67.00;;;;;;5012256;28;20505;-57
2024/03/19 12:43:27;;;;;;;4.90;4.50;;;9.40;67.10;;;;;;5012442;28;20186;-58
2024/03/19 12:45:53;;;;;;;5.00;4.50;;;9.60;65.50;;;;;;5008947;28;20423;-59
2024/03/19 12:48:18;;;;;;;7.30;5.27;;;9.60;65.00;;;;;;5012276;28;20422;-56
2024/03/19 12:50:44;;;;;;;6.10;5.37;;;9.60;64.40;;;;;;5011009;28;20208;-58